createdAt,value
2017-12-17T00:00:51.758Z,94.00
2017-12-17T00:05:36.348Z,93.60
2017-12-17T00:10:21.020Z,93.70
2017-12-17T00:15:08.671Z,93.70
2017-12-17T00:19:53.203Z,93.40
2017-12-17T00:24:37.691Z,93.60
2017-12-17T00:29:22.173Z,93.10
2017-12-17T00:34:07.432Z,93.00
2017-12-17T00:38:52.616Z,92.80
2017-12-17T00:43:37.015Z,92.80
2017-12-17T00:48:21.431Z,92.70
2017-12-17T00:53:07.393Z,92.50
2017-12-17T00:57:51.920Z,92.40
2017-12-17T01:02:36.351Z,92.50
2017-12-17T01:07:20.793Z,92.30
2017-12-17T01:12:09.199Z,92.10
2017-12-17T01:16:53.702Z,92.20
2017-12-17T01:21:38.311Z,92.20
2017-12-17T01:31:35.429Z,92.20
2017-12-17T01:41:09.678Z,92.70
2017-12-17T01:45:53.816Z,92.90
2017-12-17T01:50:37.911Z,93.00
2017-12-17T01:55:22.062Z,93.20
2017-12-17T02:00:07.691Z,93.30
2017-12-17T02:04:51.812Z,93.30
2017-12-17T02:09:35.920Z,93.30
2017-12-17T02:14:19.979Z,93.40
2017-12-17T02:19:06.500Z,93.50
2017-12-17T02:23:50.618Z,93.60
2017-12-17T02:28:34.812Z,93.60
2017-12-17T02:33:18.994Z,93.60
2017-12-17T02:38:06.298Z,93.70
2017-12-17T02:42:50.443Z,93.70
2017-12-17T02:47:34.525Z,93.70
2017-12-17T02:52:18.739Z,93.80
2017-12-17T02:57:07.484Z,93.80
2017-12-17T03:01:51.519Z,93.90
2017-12-17T03:06:35.694Z,93.80
2017-12-17T03:11:19.950Z,93.70
2017-12-17T03:16:09.211Z,93.70
2017-12-17T03:20:53.423Z,93.60
2017-12-17T03:25:37.582Z,93.60
2017-12-17T03:30:21.699Z,93.60
2017-12-17T03:35:08.119Z,93.60
2017-12-17T03:39:52.199Z,93.60
2017-12-17T03:44:36.406Z,93.40
2017-12-17T03:49:20.541Z,93.30
2017-12-17T03:54:07.933Z,93.20
2017-12-17T03:58:52.783Z,93.20
2017-12-17T04:03:37.425Z,93.20
2017-12-17T04:08:21.579Z,93.30
2017-12-17T04:13:06.998Z,93.40
2017-12-17T04:17:51.080Z,93.30
2017-12-17T04:22:35.267Z,93.30
2017-12-17T04:27:19.740Z,93.30
2017-12-17T04:32:07.991Z,93.50
2017-12-17T04:36:52.104Z,93.40
2017-12-17T04:41:42.401Z,93.50
2017-12-17T04:46:29.127Z,93.40
2017-12-17T04:51:25.634Z,93.50
2017-12-17T04:56:14.911Z,93.30
2017-12-17T05:00:59.016Z,93.40
2017-12-17T05:05:43.092Z,93.30
2017-12-17T05:10:27.179Z,93.30
2017-12-17T05:15:11.252Z,93.30
2017-12-17T05:19:55.611Z,93.40
2017-12-17T05:24:39.777Z,93.30
2017-12-17T05:29:23.844Z,93.00
2017-12-17T05:34:08.195Z,93.00
2017-12-17T05:38:52.255Z,93.00
2017-12-17T05:43:36.333Z,93.10
2017-12-17T05:48:21.225Z,93.60
2017-12-17T05:53:07.166Z,93.60
2017-12-17T05:57:51.306Z,93.70
2017-12-17T06:02:36.147Z,94.00
2017-12-17T06:07:20.251Z,94.00
2017-12-17T06:12:08.402Z,94.00
2017-12-17T06:16:52.547Z,94.00
2017-12-17T06:21:36.721Z,94.00
2017-12-17T06:26:21.658Z,93.90
2017-12-17T06:31:06.687Z,93.90
2017-12-17T06:35:51.527Z,93.90
2017-12-17T06:40:36.411Z,93.80
2017-12-17T06:45:20.614Z,93.80
2017-12-17T06:50:06.647Z,93.70
2017-12-17T06:54:50.831Z,93.70
2017-12-17T06:59:34.937Z,93.70
2017-12-17T07:04:19.892Z,93.70
2017-12-17T07:09:07.337Z,93.60
2017-12-17T07:13:52.401Z,93.50
2017-12-17T07:18:36.821Z,93.40
2017-12-17T07:23:21.689Z,93.40
2017-12-17T07:28:07.903Z,93.90
2017-12-17T07:32:52.837Z,93.70
2017-12-17T07:37:36.933Z,93.70
2017-12-17T07:42:23.654Z,93.70
2017-12-17T07:47:07.963Z,93.70
2017-12-17T07:51:52.074Z,93.80
2017-12-17T07:56:36.262Z,93.80
2017-12-17T08:01:21.115Z,93.70
2017-12-17T08:06:07.592Z,93.70
2017-12-17T08:10:52.121Z,93.90
2017-12-17T08:15:36.369Z,93.80
2017-12-17T08:20:20.570Z,93.70
2017-12-17T08:25:07.755Z,93.30
2017-12-17T08:29:51.835Z,93.10
2017-12-17T08:34:35.966Z,92.70
2017-12-17T08:39:19.999Z,92.60
2017-12-17T08:44:07.539Z,92.70
2017-12-17T08:48:51.663Z,92.80
2017-12-17T08:53:35.860Z,92.60
2017-12-17T08:58:20.667Z,92.10
2017-12-17T09:03:07.707Z,92.10
2017-12-17T09:07:51.805Z,92.10
2017-12-17T09:12:35.886Z,92.50
2017-12-17T09:17:20.737Z,91.40
2017-12-17T09:22:08.004Z,91.40
2017-12-17T09:26:52.859Z,91.50
2017-12-17T09:31:37.119Z,91.50
2017-12-17T09:36:21.387Z,91.30
2017-12-17T09:41:07.479Z,91.70
2017-12-17T09:45:52.333Z,91.50
2017-12-17T09:50:36.540Z,91.50
2017-12-17T09:55:20.594Z,91.50
2017-12-17T10:00:08.184Z,91.70
2017-12-17T10:04:52.447Z,91.90
2017-12-17T10:09:36.586Z,92.30
2017-12-17T10:14:20.847Z,92.70
2017-12-17T10:19:07.856Z,92.80
2017-12-17T10:23:51.968Z,93.00
2017-12-17T10:28:36.088Z,93.40
2017-12-17T10:33:20.166Z,93.10
2017-12-17T10:38:06.423Z,92.70
2017-12-17T10:42:50.619Z,92.90
2017-12-17T10:47:34.745Z,92.80
2017-12-17T10:52:18.892Z,92.70
2017-12-17T10:57:07.019Z,92.30
2017-12-17T11:01:51.828Z,92.00
2017-12-17T11:06:35.992Z,92.10
2017-12-17T11:11:23.732Z,91.90
2017-12-17T11:16:17.298Z,91.70
2017-12-17T11:21:09.843Z,91.80
2017-12-17T11:25:54.068Z,92.00
2017-12-17T11:30:41.556Z,92.00
2017-12-17T11:35:26.465Z,92.10
2017-12-17T11:40:16.940Z,91.90
2017-12-17T11:45:06.158Z,91.50
2017-12-17T11:49:51.103Z,91.40
2017-12-17T11:54:35.280Z,91.00
2017-12-17T11:59:19.599Z,91.00
2017-12-17T12:04:06.631Z,90.60
2017-12-17T12:08:51.588Z,90.60
2017-12-17T12:13:35.943Z,90.70
2017-12-17T12:18:23.106Z,90.40
2017-12-17T12:23:14.022Z,90.20
2017-12-17T12:33:12.780Z,90.20
2017-12-17T12:37:56.941Z,90.20
2017-12-17T12:42:41.109Z,89.90
2017-12-17T12:47:26.079Z,90.30
2017-12-17T12:52:10.218Z,90.10
2017-12-17T12:56:54.331Z,90.30
2017-12-17T13:01:38.486Z,90.10
2017-12-17T13:06:22.624Z,89.70
2017-12-17T13:11:06.948Z,89.90
2017-12-17T13:15:51.236Z,89.70
2017-12-17T13:20:35.522Z,89.80
2017-12-17T13:25:19.692Z,89.30
2017-12-17T13:30:07.137Z,89.80
2017-12-17T13:34:51.251Z,89.70
2017-12-17T13:39:36.201Z,89.80
2017-12-17T13:44:20.348Z,89.70
2017-12-17T13:49:06.475Z,90.10
2017-12-17T13:53:50.592Z,90.30
2017-12-17T13:58:34.727Z,89.90
2017-12-17T14:03:18.878Z,90.30
2017-12-17T14:08:07.330Z,90.70
2017-12-17T14:12:51.510Z,90.60
2017-12-17T14:17:36.442Z,90.80
2017-12-17T14:22:20.536Z,90.80
2017-12-17T14:27:08.563Z,90.90
2017-12-17T14:31:52.791Z,91.30
2017-12-17T14:36:36.919Z,91.10
2017-12-17T14:41:21.778Z,90.40
2017-12-17T14:46:06.931Z,90.70
2017-12-17T14:50:51.277Z,90.40
2017-12-17T14:55:36.022Z,90.40
2017-12-17T15:00:20.549Z,90.60
2017-12-17T15:05:06.707Z,90.60
2017-12-17T15:09:51.076Z,90.90
2017-12-17T15:14:35.404Z,90.90
2017-12-17T15:19:19.912Z,91.00
2017-12-17T15:24:07.659Z,91.20
2017-12-17T15:28:52.049Z,91.50
2017-12-17T15:33:36.473Z,91.50
2017-12-17T15:38:20.950Z,91.50
2017-12-17T15:43:07.246Z,91.40
2017-12-17T15:47:51.563Z,91.20
2017-12-17T15:52:37.079Z,91.40
2017-12-17T15:57:21.510Z,91.20
2017-12-17T16:02:07.040Z,90.80
2017-12-17T16:06:51.384Z,90.60
2017-12-17T16:11:36.052Z,90.60
2017-12-17T16:16:20.654Z,90.50
2017-12-17T16:21:07.060Z,90.40
2017-12-17T16:25:51.388Z,90.40
2017-12-17T16:30:36.045Z,90.10
2017-12-17T16:35:20.516Z,90.00
2017-12-17T16:40:07.096Z,90.10
2017-12-17T16:44:51.480Z,89.90
2017-12-17T16:49:36.158Z,89.90
2017-12-17T16:54:20.468Z,89.90
2017-12-17T16:59:06.782Z,89.80
2017-12-17T17:03:51.881Z,90.00
2017-12-17T17:08:36.844Z,90.00
2017-12-17T17:13:21.214Z,90.00
2017-12-17T17:18:08.860Z,90.00
2017-12-17T17:22:53.245Z,90.00
2017-12-17T17:27:37.644Z,90.30
2017-12-17T17:32:21.965Z,90.30
2017-12-17T17:37:06.586Z,90.40
2017-12-17T17:41:50.974Z,90.30
2017-12-17T17:46:35.257Z,90.60
2017-12-17T17:51:20.588Z,90.80
2017-12-17T17:56:06.457Z,90.70
2017-12-17T18:00:50.778Z,90.80
2017-12-17T18:05:35.133Z,90.70
2017-12-17T18:10:19.499Z,90.80
2017-12-17T18:15:07.527Z,90.90
2017-12-17T18:19:52.509Z,90.70
2017-12-17T18:24:36.835Z,90.70
2017-12-17T18:29:22.062Z,90.70
2017-12-17T18:34:06.491Z,90.60
2017-12-17T18:38:50.832Z,90.60
2017-12-17T18:43:35.780Z,90.50
2017-12-17T18:48:20.873Z,90.50
2017-12-17T18:53:06.795Z,90.50
2017-12-17T18:57:51.172Z,90.50
2017-12-17T19:02:35.480Z,90.30
2017-12-17T19:07:19.829Z,90.30
2017-12-17T19:12:08.666Z,90.20
2017-12-17T19:16:54.419Z,90.20
2017-12-17T19:21:38.836Z,90.20
2017-12-17T19:26:23.574Z,90.00
2017-12-17T19:31:08.098Z,89.90
2017-12-17T19:35:52.538Z,90.20
2017-12-17T19:40:37.839Z,90.00
2017-12-17T19:45:22.694Z,90.10
2017-12-17T19:50:07.756Z,90.10
2017-12-17T19:54:52.196Z,90.20
2017-12-17T19:59:36.598Z,90.00
2017-12-17T20:04:21.671Z,89.90
2017-12-17T20:09:06.997Z,90.00
2017-12-17T20:13:52.105Z,90.20
2017-12-17T20:18:36.536Z,90.20
2017-12-17T20:23:21.292Z,90.70
2017-12-17T20:28:06.661Z,90.40
2017-12-17T20:32:51.025Z,90.40
2017-12-17T20:37:35.422Z,90.50
2017-12-17T20:42:25.841Z,90.50
2017-12-17T20:47:10.519Z,90.60
2017-12-17T20:51:54.953Z,90.50
2017-12-17T20:56:39.372Z,90.80
2017-12-17T21:01:24.116Z,90.80
2017-12-17T21:06:09.031Z,90.70
2017-12-17T21:10:53.369Z,90.60
2017-12-17T21:15:37.786Z,90.50
2017-12-17T21:20:22.193Z,90.60
2017-12-17T21:25:07.641Z,90.70
2017-12-17T21:29:52.748Z,90.70
2017-12-17T21:34:37.256Z,90.70
2017-12-17T21:39:21.711Z,90.90
2017-12-17T21:44:07.105Z,91.00
2017-12-17T21:48:51.484Z,90.80
2017-12-17T21:53:35.890Z,90.90
2017-12-17T21:58:20.285Z,91.00
2017-12-17T22:03:08.548Z,91.10
2017-12-17T22:07:52.987Z,91.10
2017-12-17T22:12:37.374Z,90.90
2017-12-17T22:17:21.884Z,91.00
2017-12-17T22:22:07.310Z,90.50
2017-12-17T22:26:52.418Z,90.40
2017-12-17T22:31:36.844Z,90.30
2017-12-17T22:36:21.177Z,89.40
2017-12-17T22:41:06.472Z,88.30
2017-12-17T22:45:50.817Z,88.20
2017-12-17T22:50:35.153Z,87.80
2017-12-17T22:55:19.515Z,89.10
2017-12-17T23:00:06.970Z,90.20
2017-12-17T23:04:51.322Z,90.20
2017-12-17T23:09:35.786Z,90.20
2017-12-17T23:14:20.143Z,90.30
2017-12-17T23:19:06.442Z,90.20
2017-12-17T23:23:50.807Z,90.10
2017-12-17T23:28:35.731Z,89.70
2017-12-17T23:33:20.047Z,89.70
2017-12-17T23:38:08.302Z,89.50
2017-12-17T23:42:52.721Z,89.70
2017-12-17T23:47:37.107Z,89.60
2017-12-17T23:52:21.636Z,90.10
2017-12-17T23:57:07.985Z,89.90
